createdAt,value
2022-10-11T00:01:56.933Z,99.21
2022-10-11T00:04:59.815Z,99.30
2022-10-11T00:08:05.615Z,99.41
2022-10-11T00:11:08.587Z,99.54
2022-10-11T00:14:11.276Z,99.37
2022-10-11T00:17:14.786Z,99.37
2022-10-11T00:20:18.269Z,99.38
2022-10-11T00:23:21.184Z,99.34
2022-10-11T00:26:23.789Z,99.06
2022-10-11T00:29:26.749Z,99.36
2022-10-11T00:32:29.619Z,99.49
2022-10-11T00:35:32.504Z,99.70
2022-10-11T00:38:35.168Z,99.62
2022-10-11T00:41:38.111Z,99.71
2022-10-11T00:44:45.754Z,99.80
2022-10-11T00:47:48.672Z,99.76
2022-10-11T00:50:51.313Z,99.62
2022-10-11T00:53:54.769Z,99.47
2022-10-11T00:57:04.863Z,99.42
2022-10-11T01:00:11.401Z,99.56
2022-10-11T01:03:14.588Z,99.64
2022-10-11T01:06:17.569Z,99.55
2022-10-11T01:09:21.272Z,99.46
2022-10-11T01:12:26.896Z,99.47
2022-10-11T01:15:47.935Z,99.70
2022-10-11T01:19:12.808Z,99.82
2022-10-11T01:22:38.707Z,99.86
2022-10-11T01:25:44.508Z,100.00
2022-10-11T01:29:05.494Z,100.00
2022-10-11T01:32:29.883Z,100.00
2022-10-11T01:35:44.282Z,100.00
2022-10-11T01:38:52.587Z,100.00
2022-10-11T01:42:00.848Z,100.00
2022-10-11T01:45:05.643Z,100.00
2022-10-11T01:48:13.835Z,100.00
2022-10-11T01:51:22.143Z,100.00
2022-10-11T01:55:08.094Z,100.00
2022-10-11T01:58:34.904Z,99.86
2022-10-11T02:02:03.644Z,100.00
2022-10-11T02:05:32.474Z,99.99
2022-10-11T02:08:54.775Z,99.93
2022-10-11T02:12:11.159Z,99.55
2022-10-11T02:15:16.427Z,99.34
2022-10-11T02:18:27.484Z,99.27
2022-10-11T02:21:34.027Z,99.17
2022-10-11T02:24:42.962Z,99.12
2022-10-11T02:27:48.508Z,99.06
2022-10-11T02:30:53.708Z,99.37
2022-10-11T02:34:02.632Z,99.27
2022-10-11T02:37:09.429Z,99.23
2022-10-11T02:40:21.322Z,99.43
2022-10-11T02:43:37.035Z,99.25
2022-10-11T02:46:41.448Z,99.30
2022-10-11T02:49:44.513Z,99.38
2022-10-11T02:52:47.133Z,99.19
2022-10-11T02:55:52.743Z,99.11
2022-10-11T02:58:55.424Z,99.02
2022-10-11T03:01:58.427Z,98.88
2022-10-11T03:05:01.085Z,98.66
2022-10-11T03:08:04.113Z,98.66
2022-10-11T03:11:06.929Z,98.65
2022-10-11T03:14:09.762Z,98.68
2022-10-11T03:17:35.177Z,98.85
2022-10-11T03:20:35.740Z,98.82
2022-10-11T03:23:38.315Z,98.68
2022-10-11T03:26:41.211Z,98.92
2022-10-11T03:29:43.760Z,98.71
2022-10-11T03:32:46.642Z,98.85
2022-10-11T03:35:49.827Z,99.03
2022-10-11T03:38:52.756Z,99.01
2022-10-11T03:41:55.279Z,99.07
2022-10-11T03:44:59.800Z,99.13
2022-10-11T03:48:02.831Z,99.04
2022-10-11T03:51:05.901Z,98.66
2022-10-11T03:54:08.492Z,98.84
2022-10-11T03:57:11.403Z,98.57
2022-10-11T04:00:14.225Z,98.59
2022-10-11T04:03:17.155Z,98.36
2022-10-11T04:06:19.773Z,98.28
2022-10-11T04:09:22.811Z,98.67
2022-10-11T04:12:25.693Z,99.03
2022-10-11T04:15:28.650Z,98.89
2022-10-11T04:18:31.553Z,99.21
2022-10-11T04:21:34.476Z,99.42
2022-10-11T04:24:37.115Z,99.21
2022-10-11T04:27:40.248Z,99.41
2022-10-11T04:30:42.813Z,99.34
2022-10-11T04:33:45.806Z,99.54
2022-10-11T04:36:50.048Z,99.49
2022-10-11T04:39:53.143Z,99.59
2022-10-11T04:42:56.617Z,99.67
2022-10-11T04:45:59.552Z,99.95
2022-10-11T04:49:02.303Z,100.00
2022-10-11T04:52:05.485Z,100.00
2022-10-11T04:55:09.183Z,100.00
2022-10-11T04:58:12.157Z,100.00
2022-10-11T05:01:15.393Z,100.00
2022-10-11T05:04:18.812Z,100.00
2022-10-11T05:07:21.494Z,100.00
2022-10-11T05:10:25.198Z,100.00
2022-10-11T05:13:28.932Z,100.00
2022-10-11T05:16:32.204Z,100.00
2022-10-11T05:19:36.661Z,100.00
2022-10-11T05:22:39.638Z,100.00
2022-10-11T05:25:42.335Z,99.95
2022-10-11T05:28:47.139Z,99.73
2022-10-11T05:31:49.788Z,99.48
2022-10-11T05:34:52.598Z,99.33
2022-10-11T05:37:55.660Z,99.32
2022-10-11T05:41:02.586Z,99.36
2022-10-11T05:44:08.249Z,99.46
2022-10-11T05:47:11.167Z,99.53
2022-10-11T05:50:13.871Z,100.00
2022-10-11T05:53:17.301Z,100.00
2022-10-11T05:56:24.790Z,100.00
2022-10-11T05:59:27.792Z,100.00
2022-10-11T06:02:30.389Z,100.00
2022-10-11T06:05:34.825Z,100.00
2022-10-11T06:08:37.451Z,100.00
2022-10-11T06:11:41.415Z,100.00
2022-10-11T06:14:44.611Z,100.00
2022-10-11T06:17:48.035Z,100.00
2022-10-11T06:20:50.595Z,100.00
2022-10-11T06:23:59.912Z,100.00
2022-10-11T06:27:03.679Z,100.00
2022-10-11T06:30:07.520Z,99.58
2022-10-11T06:33:11.281Z,98.66
2022-10-11T06:36:15.711Z,98.13
2022-10-11T06:39:18.267Z,97.79
2022-10-11T06:42:21.201Z,97.39
2022-10-11T06:45:23.766Z,96.22
2022-10-11T06:48:27.052Z,95.84
2022-10-11T06:51:30.297Z,95.33
2022-10-11T06:54:33.137Z,94.27
2022-10-11T06:57:35.822Z,93.00
2022-10-11T07:00:39.458Z,92.67
2022-10-11T07:03:42.454Z,91.39
2022-10-11T07:06:45.353Z,90.00
2022-10-11T07:09:47.972Z,88.20
2022-10-11T07:12:52.307Z,88.10
2022-10-11T07:15:55.444Z,86.95
2022-10-11T07:19:01.340Z,86.80
2022-10-11T07:22:04.611Z,86.23
2022-10-11T07:25:07.780Z,84.90
2022-10-11T07:28:10.513Z,84.48
2022-10-11T07:31:20.687Z,83.54
2022-10-11T07:34:23.212Z,83.13
2022-10-11T07:37:26.729Z,81.86
2022-10-11T07:40:40.459Z,79.91
2022-10-11T07:43:44.777Z,79.21
2022-10-11T07:46:48.592Z,77.71
2022-10-11T07:49:51.504Z,77.19
2022-10-11T07:52:56.263Z,77.04
2022-10-11T07:56:02.804Z,77.20
2022-10-11T07:59:06.417Z,76.25
2022-10-11T08:02:11.908Z,75.69
2022-10-11T08:05:14.883Z,75.19
2022-10-11T08:08:20.747Z,75.93
2022-10-11T08:11:26.358Z,75.53
2022-10-11T08:14:29.320Z,74.38
2022-10-11T08:17:33.366Z,73.58
2022-10-11T08:20:39.611Z,73.26
2022-10-11T08:23:42.556Z,71.65
2022-10-11T08:26:45.337Z,71.34
2022-10-11T08:29:48.395Z,71.36
2022-10-11T08:32:51.023Z,71.04
2022-10-11T08:35:55.135Z,70.97
2022-10-11T08:38:58.627Z,69.75
2022-10-11T08:42:30.544Z,69.26
2022-10-11T08:45:46.191Z,69.29
2022-10-11T08:48:51.408Z,68.50
2022-10-11T08:52:02.733Z,69.45
2022-10-11T08:55:16.354Z,67.31
2022-10-11T08:58:24.419Z,67.46
2022-10-11T09:01:28.778Z,66.90
2022-10-11T09:04:32.395Z,66.08
2022-10-11T09:08:09.470Z,66.75
2022-10-11T09:11:30.766Z,65.77
2022-10-11T09:14:49.041Z,67.61
2022-10-11T09:18:09.667Z,67.21
2022-10-11T09:21:34.159Z,65.81
2022-10-11T09:24:47.382Z,67.02
2022-10-11T09:28:07.862Z,65.58
2022-10-11T09:31:11.827Z,65.33
2022-10-11T09:34:17.084Z,64.65
2022-10-11T09:37:30.407Z,64.13
2022-10-11T09:40:43.728Z,63.79
2022-10-11T09:43:49.496Z,63.82
2022-10-11T09:46:55.002Z,63.62
2022-10-11T09:50:03.278Z,63.49
2022-10-11T09:53:07.756Z,63.43
2022-10-11T09:56:10.529Z,63.63
2022-10-11T09:59:35.926Z,63.84
2022-10-11T10:02:49.028Z,63.69
2022-10-11T10:06:24.949Z,64.61
2022-10-11T10:09:33.698Z,63.98
2022-10-11T10:12:36.636Z,62.92
2022-10-11T10:15:46.959Z,62.72
2022-10-11T10:19:18.447Z,63.37
2022-10-11T10:22:27.439Z,63.50
2022-10-11T10:25:38.483Z,64.81
2022-10-11T10:29:02.176Z,63.99
2022-10-11T10:32:21.607Z,63.03
2022-10-11T10:35:45.489Z,61.94
2022-10-11T10:38:58.971Z,60.78
2022-10-11T10:42:05.043Z,61.98
2022-10-11T10:45:20.050Z,61.40
2022-10-11T10:49:28.331Z,60.91
2022-10-11T10:52:11.661Z,60.48
2022-10-11T10:55:23.961Z,61.91
2022-10-11T10:59:07.126Z,60.75
2022-10-11T11:06:08.221Z,60.43
2022-10-11T11:09:55.957Z,59.48
2022-10-11T11:13:14.036Z,59.21
2022-10-11T11:16:22.362Z,58.17
2022-10-11T11:19:55.750Z,58.05
2022-10-11T11:23:23.780Z,57.42
2022-10-11T11:27:12.348Z,58.07
2022-10-11T11:30:31.082Z,58.14
2022-10-11T11:33:58.922Z,57.70
2022-10-11T11:37:31.844Z,57.67
2022-10-11T11:40:44.371Z,58.15
2022-10-11T11:43:56.048Z,58.14
2022-10-11T11:47:31.270Z,58.63
2022-10-11T11:50:42.011Z,57.88
2022-10-11T11:54:05.090Z,58.11
2022-10-11T11:57:32.754Z,57.94
2022-10-11T12:00:51.607Z,58.41
2022-10-11T12:03:59.855Z,58.93
2022-10-11T12:07:16.379Z,58.45
2022-10-11T12:10:54.793Z,58.14
2022-10-11T12:13:59.391Z,58.17
2022-10-11T12:17:13.239Z,58.05
2022-10-11T12:20:27.683Z,58.04
2022-10-11T12:23:30.426Z,58.18
2022-10-11T12:26:39.064Z,58.00
2022-10-11T12:29:42.570Z,57.26
2022-10-11T12:32:48.149Z,57.09
2022-10-11T12:35:53.733Z,56.42
2022-10-11T12:39:21.199Z,56.13
2022-10-11T12:42:50.604Z,55.43
2022-10-11T12:45:54.422Z,55.32
2022-10-11T12:49:12.816Z,55.83
2022-10-11T12:52:18.169Z,55.76
2022-10-11T12:56:04.331Z,55.08
2022-10-11T12:59:17.907Z,54.11
2022-10-11T13:02:29.236Z,53.71
2022-10-11T13:05:52.363Z,54.12
2022-10-11T13:09:18.231Z,53.91
2022-10-11T13:12:25.851Z,54.98
2022-10-11T13:15:30.637Z,55.49
2022-10-11T13:18:33.448Z,56.45
2022-10-11T13:21:36.896Z,56.72
2022-10-11T13:24:40.506Z,56.52
2022-10-11T13:27:44.055Z,56.53
2022-10-11T13:30:50.327Z,56.56
2022-10-11T13:33:59.153Z,56.87
2022-10-11T13:37:01.946Z,56.86
2022-10-11T13:40:05.671Z,57.45
2022-10-11T13:43:08.739Z,57.42
2022-10-11T13:46:26.940Z,57.59
2022-10-11T13:49:39.804Z,57.19
2022-10-11T13:52:54.740Z,56.91
2022-10-11T13:56:00.164Z,57.49
2022-10-11T13:59:03.345Z,57.74
2022-10-11T14:02:22.411Z,58.36
2022-10-11T14:05:41.289Z,57.88
2022-10-11T14:08:50.259Z,57.25
2022-10-11T14:11:53.739Z,57.49
2022-10-11T14:14:57.423Z,57.98
2022-10-11T14:18:02.871Z,58.31
2022-10-11T14:21:45.751Z,58.59
2022-10-11T14:24:48.743Z,58.78
2022-10-11T14:27:51.941Z,59.08
2022-10-11T14:30:55.113Z,59.03
2022-10-11T14:33:58.868Z,59.10
2022-10-11T14:37:01.803Z,61.27
2022-10-11T14:40:12.816Z,61.14
2022-10-11T14:43:15.728Z,61.17
2022-10-11T14:46:24.053Z,61.78
2022-10-11T14:49:29.885Z,62.36
2022-10-11T14:52:32.485Z,62.92
2022-10-11T14:55:39.477Z,63.08
2022-10-11T14:58:43.400Z,62.82
2022-10-11T15:01:46.903Z,63.77
2022-10-11T15:04:49.557Z,63.90
2022-10-11T15:07:52.551Z,64.35
2022-10-11T15:10:55.165Z,64.68
2022-10-11T15:13:58.098Z,65.15
2022-10-11T15:17:00.700Z,66.86
2022-10-11T15:20:04.747Z,68.20
2022-10-11T15:23:09.858Z,68.76
2022-10-11T15:26:21.425Z,69.91
2022-10-11T15:29:24.936Z,70.52
2022-10-11T15:32:27.786Z,72.63
2022-10-11T15:35:30.739Z,72.99
2022-10-11T15:38:33.897Z,74.52
2022-10-11T15:41:36.756Z,75.61
2022-10-11T15:44:39.600Z,76.14
2022-10-11T15:47:42.259Z,77.14
2022-10-11T15:50:46.002Z,77.12
2022-10-11T15:53:48.681Z,77.09
2022-10-11T15:56:51.656Z,77.48
2022-10-11T15:59:54.400Z,77.38
2022-10-11T16:02:59.404Z,77.98
2022-10-11T16:06:05.515Z,79.40
2022-10-11T16:09:08.815Z,79.94
2022-10-11T16:12:11.833Z,81.26
2022-10-11T16:15:15.196Z,81.67
2022-10-11T16:18:21.231Z,82.09
2022-10-11T16:21:24.252Z,82.78
2022-10-11T16:24:27.416Z,82.80
2022-10-11T16:27:30.152Z,82.43
2022-10-11T16:30:34.279Z,81.97
2022-10-11T16:33:46.067Z,82.35
2022-10-11T16:36:49.355Z,83.07
2022-10-11T16:39:52.640Z,82.77
2022-10-11T16:42:55.796Z,82.85
2022-10-11T16:45:58.431Z,83.47
2022-10-11T16:49:01.966Z,83.74
2022-10-11T16:52:04.908Z,83.87
2022-10-11T16:55:08.503Z,83.38
2022-10-11T16:58:11.118Z,83.67
2022-10-11T17:01:14.173Z,83.78
2022-10-11T17:04:16.830Z,84.21
2022-10-11T17:07:22.136Z,84.55
2022-10-11T17:10:39.409Z,85.67
2022-10-11T17:13:42.482Z,85.76
2022-10-11T17:16:45.589Z,86.99
2022-10-11T17:19:48.928Z,86.88
2022-10-11T17:22:51.684Z,86.04
2022-10-11T17:25:54.647Z,84.58
2022-10-11T17:28:59.723Z,85.38
2022-10-11T17:32:03.338Z,85.20
2022-10-11T17:35:06.335Z,84.16
2022-10-11T17:38:09.265Z,84.88
2022-10-11T17:41:12.349Z,83.66
2022-10-11T17:44:19.103Z,82.12
2022-10-11T17:47:21.621Z,80.94
2022-10-11T17:50:24.586Z,81.91
2022-10-11T17:53:27.156Z,80.20
2022-10-11T17:56:35.104Z,79.82
2022-10-11T17:59:40.091Z,80.33
2022-10-11T18:02:42.984Z,80.04
2022-10-11T18:05:46.227Z,79.89
2022-10-11T18:08:49.972Z,80.37
2022-10-11T18:11:52.991Z,80.98
2022-10-11T18:14:55.613Z,81.13
2022-10-11T18:17:59.541Z,82.85
2022-10-11T18:21:02.317Z,84.88
2022-10-11T18:24:12.678Z,85.28
2022-10-11T18:27:15.272Z,84.39
2022-10-11T18:30:18.473Z,84.45
2022-10-11T18:33:21.086Z,84.03
2022-10-11T18:36:27.595Z,83.60
2022-10-11T18:39:30.433Z,83.22
2022-10-11T18:42:33.333Z,83.53
2022-10-11T18:45:35.924Z,83.01
2022-10-11T18:48:43.437Z,84.16
2022-10-11T18:51:46.656Z,83.63
2022-10-11T18:54:51.026Z,83.54
2022-10-11T18:57:53.915Z,83.66
2022-10-11T19:01:04.730Z,82.84
2022-10-11T19:04:09.386Z,82.04
2022-10-11T19:07:12.300Z,82.05
2022-10-11T19:10:15.169Z,81.65
2022-10-11T19:13:18.040Z,81.80
2022-10-11T19:16:22.642Z,80.71
2022-10-11T19:19:28.322Z,80.68
2022-10-11T19:22:30.933Z,80.85
2022-10-11T19:25:36.567Z,80.91
2022-10-11T19:28:39.544Z,80.64
2022-10-11T19:31:44.681Z,80.78
2022-10-11T19:34:47.273Z,80.85
2022-10-11T19:37:50.150Z,81.35
2022-10-11T19:40:53.017Z,81.05
2022-10-11T19:43:58.139Z,80.38
2022-10-11T19:47:05.309Z,80.88
2022-10-11T19:50:08.908Z,80.62
2022-10-11T19:53:11.666Z,80.89
2022-10-11T19:56:17.764Z,81.24
2022-10-11T19:59:21.188Z,81.06
2022-10-11T20:02:24.041Z,81.32
2022-10-11T20:05:27.415Z,81.23
2022-10-11T20:08:33.611Z,81.16
2022-10-11T20:11:36.783Z,81.27
2022-10-11T20:14:39.845Z,80.65
2022-10-11T20:17:48.619Z,80.88
2022-10-11T20:20:56.629Z,81.15
2022-10-11T20:24:02.192Z,81.00
2022-10-11T20:27:05.812Z,80.32
2022-10-11T20:30:09.208Z,80.98
2022-10-11T20:33:12.050Z,81.64
2022-10-11T20:36:18.723Z,81.41
2022-10-11T20:39:21.440Z,81.76
2022-10-11T20:42:28.872Z,82.09
2022-10-11T20:45:33.656Z,81.75
2022-10-11T20:48:37.969Z,82.45
2022-10-11T20:51:41.940Z,82.33
2022-10-11T20:54:44.745Z,81.71
2022-10-11T20:57:47.310Z,81.25
2022-10-11T21:00:50.223Z,82.25
2022-10-11T21:03:53.491Z,82.36
2022-10-11T21:06:56.327Z,82.54
2022-10-11T21:09:58.928Z,82.61
2022-10-11T21:13:02.169Z,82.68
2022-10-11T21:16:11.987Z,83.05
2022-10-11T21:19:15.886Z,82.75
2022-10-11T21:22:18.427Z,83.14
2022-10-11T21:25:21.252Z,82.90
2022-10-11T21:28:23.778Z,82.65
2022-10-11T21:31:32.723Z,83.28
2022-10-11T21:34:36.540Z,84.02
2022-10-11T21:37:39.452Z,83.43
2022-10-11T21:40:41.992Z,84.21
2022-10-11T21:43:44.859Z,84.30
2022-10-11T21:47:06.211Z,83.95
2022-10-11T21:50:10.208Z,84.79
2022-10-11T21:53:12.844Z,84.00
2022-10-11T21:56:16.080Z,84.07
2022-10-11T21:59:18.735Z,84.68
2022-10-11T22:02:21.686Z,84.62
2022-10-11T22:05:24.686Z,84.31
2022-10-11T22:08:27.704Z,84.75
2022-10-11T22:11:30.788Z,85.01
2022-10-11T22:14:33.526Z,84.82
2022-10-11T22:17:36.445Z,84.96
2022-10-11T22:20:39.062Z,85.24
2022-10-11T22:23:43.491Z,85.66
2022-10-11T22:26:46.147Z,86.12
2022-10-11T22:29:49.531Z,86.23
2022-10-11T22:32:52.551Z,86.82
2022-10-11T22:36:00.428Z,87.07
2022-10-11T22:39:07.868Z,87.52
2022-10-11T22:42:10.817Z,87.82
2022-10-11T22:45:13.379Z,88.29
2022-10-11T22:48:16.512Z,88.64
2022-10-11T22:51:19.138Z,88.96
2022-10-11T22:54:21.999Z,89.26
2022-10-11T22:57:24.786Z,89.71
2022-10-11T23:00:27.960Z,90.07
2022-10-11T23:03:30.600Z,90.27
2022-10-11T23:06:33.456Z,90.39
2022-10-11T23:09:36.046Z,90.53
2022-10-11T23:12:38.965Z,90.56
2022-10-11T23:15:41.648Z,90.00
2022-10-11T23:18:44.488Z,90.79
2022-10-11T23:21:47.011Z,90.86
2022-10-11T23:24:49.940Z,91.25
2022-10-11T23:27:52.583Z,91.85
2022-10-11T23:30:55.530Z,91.91
2022-10-11T23:33:58.080Z,92.74
2022-10-11T23:37:01.860Z,92.70
2022-10-11T23:40:05.019Z,93.09
2022-10-11T23:43:07.833Z,93.11
2022-10-11T23:46:10.441Z,93.27
2022-10-11T23:49:13.527Z,92.97
2022-10-11T23:52:16.140Z,92.57
2022-10-11T23:55:19.030Z,92.64
2022-10-11T23:58:21.569Z,92.80
